createdAt,value
2023-05-08T00:00:32.669Z,179.4762
2023-05-08T00:01:35.506Z,177.1037
2023-05-08T00:02:38.529Z,184.1441
2023-05-08T00:03:41.724Z,136.9193
2023-05-08T00:04:44.648Z,142.1178
2023-05-08T00:05:47.469Z,167.1042
2023-05-08T00:06:50.298Z,180.1858
2023-05-08T00:07:53.149Z,162.8253
2023-05-08T00:08:56.035Z,165.2882
2023-05-08T00:09:58.867Z,165.3049
2023-05-08T00:11:01.932Z,187.1526
2023-05-08T00:12:04.759Z,181.9084
2023-05-08T00:13:07.644Z,187.8265
2023-05-08T00:14:10.456Z,190.8489
2023-05-08T00:15:13.289Z,195.1709
2023-05-08T00:16:16.207Z,190.6493
2023-05-08T00:17:19.035Z,192.3539
2023-05-08T00:18:21.884Z,183.5816
2023-05-08T00:19:24.745Z,196.4034
2023-05-08T00:20:27.563Z,200.0661
2023-05-08T00:21:30.378Z,202.7665
2023-05-08T00:22:33.212Z,186.9588
2023-05-08T00:23:36.064Z,187.3083
2023-05-08T00:24:38.894Z,188.0004
2023-05-08T00:25:39.074Z,186.4450
2023-05-08T00:26:41.895Z,178.2355
2023-05-08T00:27:44.753Z,193.1216
2023-05-08T00:28:47.557Z,186.8309
2023-05-08T00:29:50.380Z,187.1624
2023-05-08T00:30:53.415Z,190.4702
2023-05-08T00:31:56.315Z,183.6567
2023-05-08T00:32:59.300Z,176.7831
2023-05-08T00:34:02.437Z,184.2359
2023-05-08T00:35:05.277Z,184.8238
2023-05-08T00:36:08.346Z,188.1771
2023-05-08T00:37:11.165Z,188.7163
2023-05-08T00:38:14.006Z,178.8619
2023-05-08T00:39:16.842Z,169.3013
2023-05-08T00:40:19.699Z,187.7791
2023-05-08T00:41:22.701Z,189.1769
2023-05-08T00:42:25.531Z,194.6914
2023-05-08T00:43:28.549Z,189.3152
2023-05-08T00:44:31.388Z,175.1604
2023-05-08T00:45:34.217Z,187.5873
2023-05-08T00:46:37.125Z,189.1792
2023-05-08T00:47:39.998Z,178.9144
2023-05-08T00:48:42.811Z,171.6475
2023-05-08T00:49:45.653Z,173.7052
2023-05-08T00:50:49.245Z,161.9384
2023-05-08T00:51:52.102Z,176.4122
2023-05-08T00:52:54.926Z,179.9417
2023-05-08T00:53:57.905Z,180.8239
2023-05-08T00:55:00.710Z,181.0592
2023-05-08T00:56:03.863Z,187.4558
2023-05-08T00:57:06.757Z,179.9152
2023-05-08T00:58:09.618Z,198.2068
2023-05-08T00:59:12.480Z,239.0592
2023-05-08T01:00:15.438Z,206.4378
2023-05-08T01:01:18.311Z,179.7438
2023-05-08T01:02:21.147Z,188.6035
2023-05-08T01:03:24.147Z,199.4122
2023-05-08T01:04:27.131Z,181.0622
2023-05-08T01:05:30.006Z,168.7248
2023-05-08T01:06:33.029Z,149.3489
2023-05-08T01:07:35.893Z,154.7294
2023-05-08T01:08:38.797Z,142.8810
2023-05-08T01:09:41.653Z,157.9513
2023-05-08T01:10:44.520Z,149.0214
2023-05-08T01:11:47.402Z,151.0789
2023-05-08T01:12:50.335Z,166.9729
2023-05-08T01:13:53.193Z,166.4118
2023-05-08T01:14:56.072Z,189.8282
2023-05-08T01:15:59.077Z,184.8224
2023-05-08T01:17:01.965Z,187.1128
2023-05-08T01:18:04.932Z,192.7672
2023-05-08T01:19:07.849Z,198.2418
2023-05-08T01:20:10.854Z,178.4351
2023-05-08T01:21:13.781Z,169.9373
2023-05-08T01:22:16.653Z,178.4421
2023-05-08T01:23:19.560Z,183.7650
2023-05-08T01:24:22.705Z,176.9461
2023-05-08T01:25:25.573Z,164.5635
2023-05-08T01:26:28.436Z,168.0586
2023-05-08T01:27:31.288Z,200.9785
2023-05-08T01:28:34.179Z,235.1238
2023-05-08T01:29:37.049Z,213.2844
2023-05-08T01:30:39.902Z,211.5298
2023-05-08T01:31:43.026Z,210.9416
2023-05-08T01:32:45.942Z,216.7063
2023-05-08T01:33:48.791Z,202.0877
2023-05-08T01:34:51.669Z,177.2945
2023-05-08T01:35:54.529Z,177.5887
2023-05-08T01:36:57.427Z,170.8820
2023-05-08T01:38:00.255Z,180.0600
2023-05-08T01:39:03.145Z,185.5887
2023-05-08T01:40:05.984Z,160.5861
2023-05-08T01:41:08.857Z,166.8855
2023-05-08T01:42:11.696Z,172.2038
2023-05-08T01:43:14.590Z,188.3438
2023-05-08T01:44:17.702Z,187.5887
2023-05-08T01:45:20.598Z,187.2358
2023-05-08T01:46:23.480Z,179.1460
2023-05-08T01:47:26.344Z,180.8828
2023-05-08T01:48:29.227Z,148.2880
2023-05-08T01:49:32.100Z,168.2967
2023-05-08T01:50:35.031Z,173.2301
2023-05-08T01:51:38.121Z,157.0504
2023-05-08T01:52:40.992Z,170.1130
2023-05-08T01:53:44.112Z,168.2348
2023-05-08T01:54:46.964Z,169.2927
2023-05-08T01:55:49.876Z,195.5648
2023-05-08T01:56:52.992Z,191.6346
2023-05-08T01:57:55.869Z,170.7924
2023-05-08T01:58:58.758Z,166.3463
2023-05-08T02:00:01.689Z,182.4583
2023-05-08T02:01:04.596Z,167.9543
2023-05-08T02:02:07.511Z,190.7081
2023-05-08T02:03:11.128Z,179.1201
2023-05-08T02:04:14.039Z,187.9963
2023-05-08T02:05:25.590Z,187.1763
2023-05-08T02:06:25.721Z,184.3754
2023-05-08T02:07:28.567Z,196.8834
2023-05-08T02:08:31.399Z,182.6032
2023-05-08T02:09:34.300Z,190.7796
2023-05-08T02:10:37.141Z,198.6000
2023-05-08T02:11:40.002Z,202.8240
2023-05-08T02:12:42.940Z,180.6336
2023-05-08T02:13:45.815Z,183.4735
2023-05-08T02:14:48.691Z,178.2945
2023-05-08T02:15:51.571Z,178.2945
2023-05-08T02:16:52.434Z,170.5622
2023-05-08T02:17:55.463Z,186.0595
2023-05-08T02:18:58.361Z,186.7650
2023-05-08T02:20:01.219Z,184.1771
2023-05-08T02:21:04.097Z,172.5858
2023-05-08T02:22:06.983Z,165.3564
2023-05-08T02:23:09.821Z,164.4681
2023-05-08T02:24:12.684Z,160.4565
2023-05-08T02:25:15.560Z,162.9864
2023-05-08T02:26:18.419Z,151.3479
2023-05-08T02:27:21.285Z,178.5173
2023-05-08T02:28:24.162Z,179.7435
2023-05-08T02:29:27.028Z,188.6512
2023-05-08T02:30:29.936Z,168.4580
2023-05-08T02:31:33.101Z,188.6585
2023-05-08T02:32:35.975Z,191.8828
2023-05-08T02:33:38.826Z,189.2933
2023-05-08T02:34:51.231Z,184.5886
2023-05-08T02:35:43.125Z,184.5340
2023-05-08T02:36:46.219Z,184.7612
2023-05-08T02:37:49.094Z,180.5996
2023-05-08T02:38:51.927Z,173.7347
2023-05-08T02:39:54.779Z,185.2439
2023-05-08T02:40:57.717Z,176.4689
2023-05-08T02:42:00.558Z,187.8726
2023-05-08T02:43:03.454Z,180.2051
2023-05-08T02:44:06.351Z,179.6217
2023-05-08T02:45:09.233Z,174.0086
2023-05-08T02:46:12.164Z,175.7012
2023-05-08T02:47:15.118Z,184.0443
2023-05-08T02:48:18.006Z,186.2291
2023-05-08T02:49:20.871Z,164.8175
2023-05-08T02:50:23.762Z,182.6449
2023-05-08T02:51:26.865Z,188.2509
2023-05-08T02:52:29.757Z,193.0865
2023-05-08T02:53:32.665Z,179.8582
2023-05-08T02:54:35.517Z,189.5795
2023-05-08T02:55:38.379Z,178.9357
2023-05-08T02:56:41.228Z,187.8802
2023-05-08T02:57:44.100Z,181.8045
2023-05-08T02:58:46.965Z,185.8264
2023-05-08T02:59:49.814Z,185.2981
2023-05-08T03:00:52.693Z,185.3530
2023-05-08T03:01:55.742Z,185.7237
2023-05-08T03:02:58.682Z,179.0005
2023-05-08T03:04:01.567Z,180.7633
2023-05-08T03:05:04.437Z,186.5964
2023-05-08T03:06:07.374Z,185.6415
2023-05-08T03:07:10.286Z,174.3309
2023-05-08T03:08:13.111Z,188.9414
2023-05-08T03:09:16.001Z,191.1124
2023-05-08T03:10:18.870Z,184.6465
2023-05-08T03:11:21.742Z,180.7960
2023-05-08T03:12:24.611Z,183.1769
2023-05-08T03:13:27.523Z,186.3533
2023-05-08T03:14:30.514Z,174.7512
2023-05-08T03:15:33.384Z,178.3513
2023-05-08T03:16:36.253Z,186.8818
2023-05-08T03:17:39.180Z,191.0644
2023-05-08T03:18:42.099Z,193.6564
2023-05-08T03:19:44.963Z,186.0010
2023-05-08T03:20:47.873Z,183.5290
2023-05-08T03:21:50.694Z,189.3343
2023-05-08T03:22:53.568Z,188.0002
2023-05-08T03:23:56.452Z,188.5887
2023-05-08T03:24:59.348Z,189.0004
2023-05-08T03:26:02.194Z,187.1788
2023-05-08T03:27:02.931Z,189.8145
2023-05-08T03:28:05.793Z,188.5359
2023-05-08T03:29:08.702Z,184.0006
2023-05-08T03:30:11.689Z,182.1938
2023-05-08T03:31:14.656Z,170.6795
2023-05-08T03:32:17.505Z,182.3096
2023-05-08T03:33:20.419Z,183.7753
2023-05-08T03:34:23.294Z,189.2937
2023-05-08T03:35:26.130Z,173.2139
2023-05-08T03:36:29.010Z,172.2357
2023-05-08T03:37:31.860Z,170.5309
2023-05-08T03:38:34.739Z,185.6531
2023-05-08T03:39:37.611Z,185.4165
2023-05-08T03:40:40.457Z,172.4688
2023-05-08T03:41:43.583Z,183.3687
2023-05-08T03:42:46.467Z,189.8714
2023-05-08T03:43:49.340Z,186.2283
2023-05-08T03:44:52.191Z,187.8777
2023-05-08T03:45:55.082Z,180.5258
2023-05-08T03:46:57.992Z,182.0805
2023-05-08T03:48:00.885Z,189.8077
2023-05-08T03:49:03.785Z,183.0791
2023-05-08T03:50:06.617Z,187.4274
2023-05-08T03:51:09.506Z,188.2691
2023-05-08T03:52:12.637Z,180.5096
2023-05-08T03:53:15.539Z,176.7336
2023-05-08T03:54:18.409Z,185.8629
2023-05-08T03:55:21.273Z,182.8821
2023-05-08T03:56:25.909Z,185.4122
2023-05-08T03:57:25.576Z,213.1607
2023-05-08T03:58:28.419Z,209.0591
2023-05-08T03:59:31.274Z,196.2913
2023-05-08T04:00:34.179Z,179.7301
2023-05-08T04:01:37.074Z,193.3533
2023-05-08T04:02:42.107Z,188.6941
2023-05-08T04:03:41.624Z,184.2287
2023-05-08T04:04:44.690Z,186.5837
2023-05-08T04:05:47.584Z,190.4122
2023-05-08T04:06:51.104Z,187.4798
2023-05-08T04:07:50.503Z,185.4382
2023-05-08T04:08:53.376Z,190.3966
2023-05-08T04:09:54.776Z,189.2488
2023-05-08T04:10:57.641Z,185.7065
2023-05-08T04:12:00.537Z,184.5911
2023-05-08T04:13:03.467Z,176.6064
2023-05-08T04:14:06.344Z,181.1409
2023-05-08T04:15:09.202Z,190.8343
2023-05-08T04:16:12.102Z,180.3907
2023-05-08T04:17:15.054Z,176.8196
2023-05-08T04:18:17.898Z,179.0362
2023-05-08T04:19:20.907Z,187.6597
2023-05-08T04:20:24.035Z,191.8571
2023-05-08T04:21:26.970Z,185.0612
2023-05-08T04:22:29.828Z,167.7652
2023-05-08T04:23:32.686Z,187.2284
2023-05-08T04:24:35.541Z,188.0004
2023-05-08T04:25:38.418Z,181.0736
2023-05-08T04:26:41.344Z,172.6555
2023-05-08T04:27:44.356Z,184.2941
2023-05-08T04:28:47.325Z,182.7638
2023-05-08T04:29:50.249Z,188.9411
2023-05-08T04:30:53.143Z,180.6720
2023-05-08T04:31:56.031Z,182.7609
2023-05-08T04:32:58.954Z,186.7630
2023-05-08T04:34:01.818Z,188.6474
2023-05-08T04:35:02.594Z,191.9380
2023-05-08T04:36:05.464Z,185.8848
2023-05-08T04:37:06.210Z,182.4049
2023-05-08T04:38:09.120Z,172.1885
2023-05-08T04:39:12.033Z,194.9734
2023-05-08T04:40:14.914Z,198.2453
2023-05-08T04:41:17.792Z,188.4122
2023-05-08T04:42:20.648Z,188.6475
2023-05-08T04:43:23.563Z,183.6465
2023-05-08T04:44:26.447Z,183.6156
2023-05-08T04:45:29.373Z,192.4688
2023-05-08T04:46:32.262Z,180.1420
2023-05-08T04:47:35.263Z,148.1793
2023-05-08T04:48:38.125Z,164.6112
2023-05-08T04:49:41.007Z,175.7695
2023-05-08T04:50:43.912Z,165.2239
2023-05-08T04:51:46.806Z,162.1769
2023-05-08T04:52:49.908Z,179.2502
2023-05-08T04:53:52.806Z,170.2822
2023-05-08T04:54:55.691Z,156.9022
2023-05-08T04:55:58.608Z,136.7828
2023-05-08T04:57:01.459Z,136.8237
2023-05-08T04:58:04.484Z,138.2782
2023-05-08T04:59:07.329Z,123.8368
2023-05-08T05:00:10.223Z,128.0985
2023-05-08T05:01:13.141Z,126.9187
2023-05-08T05:02:13.870Z,133.6052
2023-05-08T05:03:16.813Z,130.3981
2023-05-08T05:04:19.715Z,134.3209
2023-05-08T05:05:22.631Z,131.1948
2023-05-08T05:06:25.498Z,134.8690
2023-05-08T05:07:28.385Z,130.2181
2023-05-08T05:08:31.237Z,132.0977
2023-05-08T05:09:34.107Z,135.0869
2023-05-08T05:10:37.187Z,137.0656
2023-05-08T05:11:40.069Z,134.9148
2023-05-08T05:12:43.240Z,127.2942
2023-05-08T05:13:46.076Z,136.1972
2023-05-08T05:14:48.998Z,135.8417
2023-05-08T05:15:51.874Z,129.4302
2023-05-08T05:16:54.709Z,133.0680
2023-05-08T05:17:57.623Z,129.1575
2023-05-08T05:19:00.505Z,126.3618
2023-05-08T05:20:03.394Z,131.8954
2023-05-08T05:21:06.272Z,141.6869
2023-05-08T05:22:09.171Z,139.1545
2023-05-08T05:23:12.014Z,157.0237
2023-05-08T05:24:14.981Z,152.0001
2023-05-08T05:25:17.873Z,139.8120
2023-05-08T05:26:20.705Z,147.2411
2023-05-08T05:27:24.087Z,141.3959
2023-05-08T05:28:26.977Z,148.4830
2023-05-08T05:29:29.907Z,149.5062
2023-05-08T05:30:32.798Z,163.4710
2023-05-08T05:31:35.765Z,160.4182
2023-05-08T05:32:38.620Z,142.4962
2023-05-08T05:33:41.489Z,155.6292
2023-05-08T05:34:44.412Z,149.8213
2023-05-08T05:35:47.266Z,155.9287
2023-05-08T05:36:50.105Z,149.8345
2023-05-08T05:37:53.298Z,151.8803
2023-05-08T05:38:56.157Z,143.6378
2023-05-08T05:39:56.858Z,139.8127
2023-05-08T05:40:59.713Z,130.7027
2023-05-08T05:42:03.241Z,145.5616
2023-05-08T05:43:06.073Z,144.7714
2023-05-08T05:44:08.958Z,151.7807
2023-05-08T05:45:11.970Z,142.5360
2023-05-08T05:46:14.926Z,152.8322
2023-05-08T05:47:18.247Z,137.5058
2023-05-08T05:48:28.885Z,136.4271
2023-05-08T05:49:31.750Z,157.5904
2023-05-08T05:50:34.621Z,151.0426
2023-05-08T05:51:37.494Z,157.0147
2023-05-08T05:52:40.387Z,145.1088
2023-05-08T05:53:43.298Z,137.9993
2023-05-08T05:54:46.167Z,139.0147
2023-05-08T05:55:49.279Z,131.0022
2023-05-08T05:56:52.160Z,128.9391
2023-05-08T05:57:55.290Z,160.1397
2023-05-08T05:58:58.170Z,146.6854
2023-05-08T06:00:01.047Z,112.5887
2023-05-08T06:01:03.915Z,124.9327
2023-05-08T06:02:06.860Z,129.2396
2023-05-08T06:03:09.884Z,132.9666
2023-05-08T06:04:12.771Z,119.2926
2023-05-08T06:05:15.641Z,125.8842
2023-05-08T06:06:18.528Z,127.6877
2023-05-08T06:07:21.415Z,125.4932
2023-05-08T06:08:24.267Z,131.8893
2023-05-08T06:09:27.137Z,119.0769
2023-05-08T06:10:30.020Z,128.5545
2023-05-08T06:11:32.906Z,126.3633
2023-05-08T06:12:35.796Z,131.4458
2023-05-08T06:13:38.634Z,127.2355
2023-05-08T06:14:41.497Z,128.1857
2023-05-08T06:15:44.394Z,122.5865
2023-05-08T06:16:47.304Z,125.8494
2023-05-08T06:17:50.180Z,130.9326
2023-05-08T06:18:53.028Z,142.7601
2023-05-08T06:19:55.911Z,131.9376
2023-05-08T06:20:58.911Z,128.1228
2023-05-08T06:22:01.788Z,130.1634
2023-05-08T06:23:04.666Z,132.5316
2023-05-08T06:24:07.530Z,134.4143
2023-05-08T06:25:10.562Z,141.3506
2023-05-08T06:26:13.482Z,129.3541
2023-05-08T06:27:16.363Z,137.1290
2023-05-08T06:28:19.471Z,122.4930
2023-05-08T06:29:22.337Z,128.3576
2023-05-08T06:30:25.193Z,128.5872
2023-05-08T06:31:28.091Z,132.0081
2023-05-08T06:32:30.936Z,135.8762
2023-05-08T06:33:33.845Z,132.1029
2023-05-08T06:34:36.713Z,132.7488
2023-05-08T06:35:39.566Z,143.1797
2023-05-08T06:36:42.438Z,150.8242
2023-05-08T06:37:45.311Z,141.2160
2023-05-08T06:38:48.198Z,150.3779
2023-05-08T06:40:00.317Z,154.3682
2023-05-08T06:40:52.552Z,120.4919
2023-05-08T06:41:55.430Z,130.9665
2023-05-08T06:42:58.310Z,126.4130
2023-05-08T06:44:01.210Z,130.6053
2023-05-08T06:45:04.098Z,130.4835
2023-05-08T06:46:06.968Z,133.6296
2023-05-08T06:47:09.872Z,130.0658
2023-05-08T06:48:12.740Z,122.4823
2023-05-08T06:49:15.609Z,113.4122
2023-05-08T06:50:18.471Z,120.0336
2023-05-08T06:51:21.348Z,126.8224
2023-05-08T06:52:24.218Z,128.1180
2023-05-08T06:53:27.092Z,134.1190
2023-05-08T06:54:29.948Z,145.8240
2023-05-08T06:55:32.832Z,122.4474
2023-05-08T06:56:35.715Z,132.7046
2023-05-08T06:57:38.585Z,139.4809
2023-05-08T06:58:41.456Z,146.2357
2023-05-08T06:59:44.356Z,137.5793
2023-05-08T07:00:47.202Z,136.2920
2023-05-08T07:01:50.088Z,147.7064
2023-05-08T07:02:53.101Z,155.8828
2023-05-08T07:03:56.006Z,156.5298
2023-05-08T07:04:58.941Z,163.4132
2023-05-08T07:06:01.868Z,164.1181
2023-05-08T07:07:04.734Z,164.0592
2023-05-08T07:08:07.674Z,164.0004
2023-05-08T07:09:10.552Z,0.0000
2023-05-08T07:10:13.434Z,164.0592
2023-05-08T07:11:16.536Z,164.5298
2023-05-08T07:12:19.407Z,165.0004
2023-05-08T07:13:20.196Z,165.1254
2023-05-08T07:14:23.105Z,165.0004
2023-05-08T07:15:26.935Z,159.7063
2023-05-08T07:16:26.366Z,159.9379
2023-05-08T07:17:29.236Z,160.0592
2023-05-08T07:18:32.066Z,159.9416
2023-05-08T07:19:34.921Z,159.8828
2023-05-08T07:20:37.830Z,159.8543
2023-05-08T07:21:40.777Z,146.6061
2023-05-08T07:22:43.623Z,132.0593
2023-05-08T07:23:46.528Z,140.9424
2023-05-08T07:24:49.399Z,150.3546
2023-05-08T07:25:52.250Z,128.7187
2023-05-08T07:26:55.151Z,153.0202
2023-05-08T07:28:01.023Z,102.6404
2023-05-08T07:29:00.525Z,105.0004
2023-05-08T07:30:03.384Z,139.8229
2023-05-08T07:31:06.259Z,151.5687
2023-05-08T07:32:09.120Z,117.1279
2023-05-08T07:33:12.068Z,128.0629
2023-05-08T07:34:14.952Z,128.9355
2023-05-08T07:35:17.890Z,128.2941
2023-05-08T07:36:20.744Z,129.6516
2023-05-08T07:37:23.622Z,119.5855
2023-05-08T07:38:26.532Z,124.0591
2023-05-08T07:39:29.437Z,123.0031
2023-05-08T07:40:32.312Z,136.0458
2023-05-08T07:41:35.285Z,132.5495
2023-05-08T07:42:38.165Z,126.6085
2023-05-08T07:43:41.082Z,116.5377
2023-05-08T07:44:53.593Z,102.2987
2023-05-08T07:45:45.449Z,143.1928
2023-05-08T07:46:48.386Z,129.2235
2023-05-08T07:47:51.329Z,131.7651
2023-05-08T07:48:54.258Z,135.7600
2023-05-08T07:49:57.164Z,121.5165
2023-05-08T07:51:00.184Z,119.6063
2023-05-08T07:52:03.072Z,116.0008
2023-05-08T07:53:05.985Z,124.3483
2023-05-08T07:54:08.904Z,115.3505
2023-05-08T07:55:12.038Z,112.4599
2023-05-08T07:56:13.182Z,124.1599
2023-05-08T07:57:16.127Z,135.1754
2023-05-08T07:58:19.038Z,125.7661
2023-05-08T07:59:21.950Z,123.5867
2023-05-08T08:00:24.860Z,128.4705
2023-05-08T08:01:27.799Z,131.9416
2023-05-08T08:02:30.847Z,132.1769
2023-05-08T08:03:34.050Z,132.0004
2023-05-08T08:04:37.154Z,129.0592
2023-05-08T08:05:40.086Z,128.2945
2023-05-08T08:06:43.033Z,127.8828
2023-05-08T08:07:45.910Z,163.7645
2023-05-08T08:08:48.831Z,185.4710
2023-05-08T08:09:51.698Z,185.4710
2023-05-08T08:10:54.612Z,185.4710
2023-05-08T08:11:57.497Z,185.6475
2023-05-08T08:13:00.433Z,185.5298
2023-05-08T08:14:03.304Z,185.7651
2023-05-08T08:15:06.207Z,185.4710
2023-05-08T08:16:09.145Z,185.1181
2023-05-08T08:17:12.174Z,184.4122
2023-05-08T08:18:15.389Z,177.3088
2023-05-08T08:19:18.335Z,165.7063
2023-05-08T08:20:21.219Z,165.7063
2023-05-08T08:21:24.139Z,170.3546
2023-05-08T08:22:27.047Z,173.3534
2023-05-08T08:23:30.273Z,172.9416
2023-05-08T08:24:33.159Z,167.0579
2023-05-08T08:25:36.332Z,159.2356
2023-05-08T08:26:39.237Z,159.5292
2023-05-08T08:27:42.121Z,156.1759
2023-05-08T08:28:45.067Z,152.4121
2023-05-08T08:29:47.984Z,154.7063
2023-05-08T08:30:50.926Z,154.7651
2023-05-08T08:31:53.843Z,171.5181
2023-05-08T08:32:56.744Z,205.3534
2023-05-08T08:33:59.640Z,205.1181
2023-05-08T08:35:02.567Z,189.6468
2023-05-08T08:36:05.454Z,154.7630
2023-05-08T08:37:08.363Z,165.8754
2023-05-08T08:38:11.281Z,143.0325
2023-05-08T08:39:15.422Z,155.3372
2023-05-08T08:40:14.651Z,161.6881
2023-05-08T08:41:17.577Z,163.8702
2023-05-08T08:42:20.465Z,188.1898
2023-05-08T08:43:23.382Z,193.2945
2023-05-08T08:44:26.333Z,188.3572
2023-05-08T08:45:29.212Z,177.2371
2023-05-08T08:46:32.142Z,171.3533
2023-05-08T08:47:35.094Z,195.1820
2023-05-08T08:48:38.006Z,198.7635
2023-05-08T08:49:40.892Z,204.0004
2023-05-08T08:50:43.873Z,204.3531
2023-05-08T08:51:46.737Z,187.8484
2023-05-08T08:52:49.639Z,168.3533
2023-05-08T08:53:52.018Z,183.1497
2023-05-08T08:54:54.920Z,212.9962
2023-05-08T08:55:57.834Z,221.0592
2023-05-08T08:57:00.747Z,221.1769
2023-05-08T08:58:03.659Z,221.0004
2023-05-08T08:59:06.590Z,221.0592
2023-05-08T09:00:09.558Z,220.7651
2023-05-08T09:01:12.490Z,200.2124
2023-05-08T09:02:15.483Z,168.7651
2023-05-08T09:03:18.459Z,151.1034
2023-05-08T09:04:21.470Z,137.9055
2023-05-08T09:05:24.342Z,121.8828
2023-05-08T09:06:27.285Z,125.4715
2023-05-08T09:07:30.127Z,129.8239
2023-05-08T09:08:33.007Z,136.5863
2023-05-08T09:09:35.984Z,144.6475
2023-05-08T09:10:38.844Z,149.7000
2023-05-08T09:11:41.745Z,272.9277
2023-05-08T09:12:44.647Z,264.4710
2023-05-08T09:13:47.531Z,264.2946
2023-05-08T09:14:50.449Z,264.5887
2023-05-08T09:15:53.390Z,266.3931
2023-05-08T09:16:56.303Z,269.8979
2023-05-08T09:17:59.213Z,231.2357
2023-05-08T09:19:03.342Z,243.3251
2023-05-08T09:20:03.040Z,257.0004
2023-05-08T09:21:05.982Z,255.4710
2023-05-08T09:22:08.941Z,230.2724
2023-05-08T09:23:11.798Z,213.1199
2023-05-08T09:24:14.710Z,95.4855
2023-05-08T09:25:17.638Z,118.2358
2023-05-08T09:26:20.535Z,124.2956
2023-05-08T09:27:23.455Z,129.7064
2023-05-08T09:28:26.601Z,275.7886
2023-05-08T09:29:29.550Z,284.1250
2023-05-08T09:30:32.470Z,282.0094
2023-05-08T09:31:35.394Z,277.9410
2023-05-08T09:32:38.319Z,267.7896
2023-05-08T09:33:41.185Z,254.4710
2023-05-08T09:34:44.100Z,256.8253
2023-05-08T09:35:47.009Z,247.4221
2023-05-08T09:36:50.042Z,248.9416
2023-05-08T09:37:53.305Z,248.9416
2023-05-08T09:38:53.426Z,248.7505
2023-05-08T09:39:56.410Z,248.7064
2023-05-08T09:40:59.287Z,240.2340
2023-05-08T09:42:02.184Z,235.8240
2023-05-08T09:43:05.166Z,236.2357
2023-05-08T09:44:08.030Z,230.0946
2023-05-08T09:45:11.222Z,306.6312
2023-05-08T09:46:14.356Z,308.9900
2023-05-08T09:47:17.264Z,281.4067
2023-05-08T09:48:20.153Z,268.6501
2023-05-08T09:49:23.070Z,270.8444
2023-05-08T09:50:26.016Z,274.1251
2023-05-08T09:51:26.802Z,263.2460
2023-05-08T09:52:29.725Z,231.4183
2023-05-08T09:53:32.916Z,255.6990
2023-05-08T09:54:35.852Z,293.8604
2023-05-08T09:55:38.754Z,316.8069
2023-05-08T09:56:41.662Z,324.2950
2023-05-08T09:57:44.557Z,322.1383
2023-05-08T09:58:47.479Z,237.0107
2023-05-08T09:59:50.387Z,274.7603
2023-05-08T10:00:53.342Z,281.3505
2023-05-08T10:01:56.237Z,273.5124
2023-05-08T10:02:59.324Z,293.2839
2023-05-08T10:04:02.496Z,256.2717
2023-05-08T10:05:05.428Z,252.9575
2023-05-08T10:06:08.307Z,231.8815
2023-05-08T10:07:11.211Z,228.0580
2023-05-08T10:08:14.104Z,262.2986
2023-05-08T10:09:17.042Z,260.6925
2023-05-08T10:10:19.924Z,251.7865
2023-05-08T10:11:22.842Z,256.2854
2023-05-08T10:12:25.810Z,255.6690
2023-05-08T10:13:28.717Z,279.1895
2023-05-08T10:14:31.607Z,281.5867
2023-05-08T10:15:34.523Z,243.0970
2023-05-08T10:16:37.432Z,250.3399
2023-05-08T10:17:40.373Z,264.4393
2023-05-08T10:18:43.298Z,301.0502
2023-05-08T10:19:46.235Z,289.7683
2023-05-08T10:20:49.133Z,261.4652
2023-05-08T10:21:52.020Z,277.8372
2023-05-08T10:22:54.913Z,258.9148
2023-05-08T10:23:57.878Z,199.0916
2023-05-08T10:25:00.830Z,281.8589
2023-05-08T10:26:03.819Z,246.9077
2023-05-08T10:27:07.755Z,253.1293
2023-05-08T10:28:07.183Z,255.7997
2023-05-08T10:29:10.143Z,261.3741
2023-05-08T10:30:13.240Z,205.5998
2023-05-08T10:31:16.698Z,180.8613
2023-05-08T10:32:19.630Z,191.9324
2023-05-08T10:33:22.516Z,219.3824
2023-05-08T10:34:25.389Z,232.2517
2023-05-08T10:35:28.389Z,237.0424
2023-05-08T10:36:31.302Z,213.3272
2023-05-08T10:37:34.213Z,185.2258
2023-05-08T10:38:37.274Z,163.6285
2023-05-08T10:39:40.155Z,163.9723
2023-05-08T10:40:43.088Z,32.5330
2023-05-08T10:41:45.948Z,244.2178
2023-05-08T10:42:48.853Z,227.9051
2023-05-08T10:43:51.728Z,238.4711
2023-05-08T10:44:54.653Z,231.6630
2023-05-08T10:45:57.587Z,198.9441
2023-05-08T10:47:00.487Z,171.1208
2023-05-08T10:48:03.482Z,197.8188
2023-05-08T10:49:06.435Z,181.8909
2023-05-08T10:50:09.356Z,136.1565
2023-05-08T10:51:12.351Z,147.6757
2023-05-08T10:52:15.260Z,137.3148
2023-05-08T10:53:18.211Z,156.4965
2023-05-08T10:54:21.128Z,141.0929
2023-05-08T10:55:24.088Z,126.3447
2023-05-08T10:56:27.048Z,134.5483
2023-05-08T10:57:29.987Z,166.1893
2023-05-08T10:58:32.875Z,148.1369
2023-05-08T10:59:35.817Z,147.7972
2023-05-08T11:00:38.716Z,172.9694
2023-05-08T11:01:41.639Z,167.2912
2023-05-08T11:02:44.586Z,160.9454
2023-05-08T11:03:47.585Z,230.1051
2023-05-08T11:04:50.535Z,207.6885
2023-05-08T11:05:53.483Z,176.0313
2023-05-08T11:06:56.372Z,201.5799
2023-05-08T11:07:59.369Z,191.4356
2023-05-08T11:09:02.262Z,159.7756
2023-05-08T11:10:05.155Z,206.2015
2023-05-08T11:11:08.089Z,194.8506
2023-05-08T11:12:10.979Z,191.2542
2023-05-08T11:13:13.919Z,205.4545
2023-05-08T11:14:16.831Z,165.0681
2023-05-08T11:15:19.767Z,174.6692
2023-05-08T11:16:22.765Z,180.7224
2023-05-08T11:17:25.680Z,250.0206
2023-05-08T11:18:41.786Z,235.5626
2023-05-08T11:19:30.230Z,276.5020
2023-05-08T11:20:33.111Z,262.2341
2023-05-08T11:21:36.046Z,252.7243
2023-05-08T11:22:38.952Z,246.2446
2023-05-08T11:23:41.909Z,243.4658
2023-05-08T11:24:44.766Z,266.2058
2023-05-08T11:25:47.690Z,266.3427
2023-05-08T11:26:50.617Z,286.0007
2023-05-08T11:27:53.535Z,287.4069
2023-05-08T11:28:56.492Z,208.7880
2023-05-08T11:29:59.397Z,276.9104
2023-05-08T11:31:02.335Z,280.7183
2023-05-08T11:32:05.386Z,278.2092
2023-05-08T11:33:08.461Z,302.7132
2023-05-08T11:34:11.397Z,333.6799
2023-05-08T11:35:14.317Z,275.4651
2023-05-08T11:36:17.267Z,283.1481
2023-05-08T11:37:20.245Z,245.2944
2023-05-08T11:38:23.163Z,271.4592
2023-05-08T11:39:26.054Z,253.4073
2023-05-08T11:40:28.969Z,285.6597
2023-05-08T11:41:32.250Z,278.8019
2023-05-08T11:42:35.225Z,278.6451
2023-05-08T11:43:38.168Z,259.6479
2023-05-08T11:44:41.090Z,256.2945
2023-05-08T11:45:44.008Z,306.7053
2023-05-08T11:46:46.964Z,320.3186
2023-05-08T11:47:49.899Z,305.9377
2023-05-08T11:48:52.798Z,256.3534
2023-05-08T11:49:55.715Z,255.3534
2023-05-08T11:50:58.601Z,246.3497
2023-05-08T11:52:01.510Z,264.3621
2023-05-08T11:53:04.400Z,259.8936
2023-05-08T11:54:07.344Z,248.8235
2023-05-08T11:55:10.223Z,291.6996
2023-05-08T11:56:13.176Z,255.4901
2023-05-08T11:57:16.097Z,241.4664
2023-05-08T11:58:19.033Z,273.3847
2023-05-08T11:59:22.156Z,276.6479
2023-05-08T12:00:25.077Z,276.8244
2023-05-08T12:01:28.000Z,261.9905
2023-05-08T12:02:33.351Z,253.3533
2023-05-08T12:03:33.351Z,257.7520
2023-05-08T12:04:36.377Z,198.1007
2023-05-08T12:05:39.331Z,164.2829
2023-05-08T12:06:40.102Z,153.4566
2023-05-08T12:07:43.052Z,179.6207
2023-05-08T12:08:45.938Z,245.0009
2023-05-08T12:09:48.865Z,243.9411
2023-05-08T12:10:51.766Z,251.3517
2023-05-08T12:11:54.664Z,262.0479
2023-05-08T12:12:57.579Z,263.4114
2023-05-08T12:14:00.489Z,255.5799
2023-05-08T12:15:03.393Z,247.1750
2023-05-08T12:16:06.312Z,271.5707
2023-05-08T12:17:09.272Z,208.8060
2023-05-08T12:18:12.160Z,213.6742